Pagrindinis puslapis
METAR-TAF:

METAR-TAF

Oro uostai :

Gillespie County Airport

Fredericksburg, Teksasas, Jungtinės Amerikos Valstijos

platuma: 30-14-37N, ilguma: 098-54-34W, Aukštis: 517 m

Dabartinis oras

Ataskaita buvo paskelbta 27 minutes, ne 07:15 UTC
Ramus vėjas
Temperatūra 15°C
Drėgmė 94%
Slėgis 1015 hPa
Matomumas: 16.1 km
Giedras dangus

METAR: KT82 270715Z AUTO 00000KT 10SM CLR 15/14 A2996 RMK AO2 T01540140

Laikas: 02:42 (07:42 UTC)


TAF: trūkstamas

Orai ataskaitas ir orų prognozės (METAR, TAF).

turimą stotys yra geltonos ir raudonos taškus žemėlapyje.

Perkelti pele per norėdami pamatyti stoties vardą.

Tada spustelėkite, norėdami matyti oro stebėjimo ir prognozės.

Norėdami pakeisti žemėlapį: spustelėkite ant žalios mygtukų su juodo kryžiaus žemyn,; žalią mygtuką su brūkšneliu, jei norite nutolinti; arba žalių rodyklių gretimoms žemėlapius.


METAR-TAF: